Time;durP1;ratioP1;P1;durP2;ratioP2;P2;SDS_P1;SDS_P2;PMS_P1;PMS_P2;Temp;Humidity;BMP_temperature;BMP_pressure;BME280_temperature;BME280_humidity;BME280_pressure;Samples;Min_cycle;Max_cycle;Signal;HPM_P1;HPM_P2
2021/03/22 00:00:33;;;;;;;19.03;8.27;;;;;;;-1.37;79.67;99623.29;124594;1109;103980;-78
2021/03/22 00:03:12;;;;;;;19.17;8.90;;;;;;;-1.38;80.46;99626.70;124603;1106;104047;-78
2021/03/22 00:05:40;;;;;;;19.80;8.65;;;;;;;-1.41;79.80;99631.80;124461;1106;104265;-78
2021/03/22 00:08:08;;;;;;;16.87;8.43;;;;;;;-1.42;80.07;99635.20;124509;1105;104229;-78
2021/03/22 00:10:37;;;;;;;23.60;8.93;;;;;;;-1.45;80.25;99635.16;124572;1105;104274;-77
2021/03/22 00:13:04;;;;;;;18.90;8.90;;;;;;;-1.47;79.71;99636.00;124544;1105;104230;-78
2021/03/22 00:15:35;;;;;;;16.50;8.25;;;;;;;-1.51;80.05;99637.69;124687;1106;104255;-78
2021/03/22 00:18:09;;;;;;;18.47;8.13;;;;;;;-1.54;80.23;99655.58;124811;1105;104208;-78
2021/03/22 00:20:37;;;;;;;20.10;7.67;;;;;;;-1.58;79.57;99652.14;124508;1106;103040;-78
2021/03/22 00:23:05;;;;;;;15.83;8.03;;;;;;;-1.61;80.14;99654.69;124494;1106;104105;-79
2021/03/22 00:25:33;;;;;;;15.83;8.07;;;;;;;-1.65;79.74;99646.95;124567;1105;104105;-77
2021/03/22 00:28:02;;;;;;;20.60;7.60;;;;;;;-1.66;80.10;99650.36;124633;1105;102940;-78
2021/03/22 00:30:33;;;;;;;20.23;7.20;;;;;;;-1.70;80.03;99643.52;124637;1109;104223;-78
2021/03/22 00:33:01;;;;;;;17.33;7.30;;;;;;;-1.73;79.96;99652.03;124557;1109;104229;-79
2021/03/22 00:35:29;;;;;;;13.97;7.00;;;;;;;-1.75;80.23;99650.31;124648;1105;104002;-78
2021/03/22 00:37:57;;;;;;;15.03;7.33;;;;;;;-1.76;80.39;99648.59;124635;1106;104134;-78
2021/03/22 00:40:27;;;;;;;11.73;6.20;;;;;;;-1.78;80.11;99652.84;124811;1105;104146;-78
2021/03/22 00:42:55;;;;;;;16.23;6.60;;;;;;;-1.83;80.08;99653.64;124564;1106;104245;-78
2021/03/22 00:45:23;;;;;;;16.27;6.70;;;;;;;-1.87;80.00;99657.02;124575;1105;104230;-78
2021/03/22 00:47:50;;;;;;;16.97;6.57;;;;;;;-1.88;79.68;99652.75;124490;1105;104216;-78
2021/03/22 00:50:26;;;;;;;12.80;5.90;;;;;;;-1.91;80.01;99655.29;124581;1106;104616;-77
2021/03/22 00:52:53;;;;;;;16.13;6.40;;;;;;;-1.94;80.14;99655.27;124546;1105;104120;-78
2021/03/22 00:55:21;;;;;;;14.40;6.13;;;;;;;-1.95;79.90;99653.56;124506;1109;104213;-79
2021/03/22 00:57:48;;;;;;;16.80;6.10;;;;;;;-1.96;79.68;99650.99;124487;1108;104290;-78
2021/03/22 01:00:28;;;;;;;17.23;6.10;;;;;;;-1.96;80.95;99653.55;124491;1105;104320;-78
2021/03/22 01:02:56;;;;;;;15.00;6.53;;;;;;;-1.97;80.16;99659.50;124633;1105;104277;-77
2021/03/22 01:05:25;;;;;;;16.30;6.27;;;;;;;-1.98;80.93;99652.65;124568;1109;104534;-79
2021/03/22 01:07:53;;;;;;;13.27;6.17;;;;;;;-1.99;79.67;99659.46;124564;1105;104300;-78
2021/03/22 01:10:28;;;;;;;15.70;6.57;;;;;;;-2.02;79.92;99656.89;124561;1105;104348;-78
2021/03/22 01:12:56;;;;;;;16.40;6.37;;;;;;;-2.05;80.51;99659.42;124502;1105;104188;-79
2021/03/22 01:15:24;;;;;;;12.93;6.10;;;;;;;-2.07;80.69;99663.66;124807;1105;104188;-78
2021/03/22 01:17:54;;;;;;;15.23;6.30;;;;;;;-2.09;80.67;99660.23;124629;1109;104275;-78
2021/03/22 01:20:31;;;;;;;13.07;5.60;;;;;;;-2.10;80.25;99657.67;124580;1105;101658;-79
2021/03/22 01:22:59;;;;;;;14.50;6.10;;;;;;;-2.12;79.94;99661.91;124697;1105;104248;-79
2021/03/22 01:25:27;;;;;;;12.87;5.43;;;;;;;-2.14;80.02;99667.02;124505;1105;104227;-79
2021/03/22 01:27:56;;;;;;;15.17;6.10;;;;;;;-2.17;80.97;99667.81;124659;1105;103989;-79
2021/03/22 01:30:31;;;;;;;13.70;5.97;;;;;;;-2.18;80.95;99667.80;124678;1106;103935;-78
2021/03/22 01:32:59;;;;;;;15.47;5.90;;;;;;;-2.18;80.25;99670.36;124567;1109;104595;-79
2021/03/22 01:35:27;;;;;;;10.65;5.05;;;;;;;-2.20;80.23;99672.89;124557;1106;104191;-78
2021/03/22 01:37:54;;;;;;;9.55;5.47;;;;;;;-2.21;80.16;99677.99;124500;1107;104249;-78
2021/03/22 01:40:53;;;;;;;18.53;5.77;;;;;;;-2.21;80.01;99675.44;124543;1106;104085;-79
2021/03/22 01:43:38;;;;;;;13.17;5.37;;;;;;;-2.23;80.50;99674.57;124797;1105;104197;-78
2021/03/22 01:46:06;;;;;;;13.33;5.50;;;;;;;-2.25;80.69;99678.81;124588;1106;104189;-78
2021/03/22 01:48:34;;;;;;;14.40;5.53;;;;;;;-2.26;79.88;99675.40;124583;1109;104234;-79
2021/03/22 01:51:02;;;;;;;12.80;5.57;;;;;;;-2.27;80.58;99678.80;124580;1109;104284;-79
2021/03/22 01:53:29;;;;;;;14.73;5.60;;;;;;;-2.28;80.02;99678.78;124506;1105;104159;-79
2021/03/22 01:56:22;;;;;;;11.53;5.17;;;;;;;-2.27;80.65;99680.50;124518;1105;104134;-78
2021/03/22 01:58:50;;;;;;;11.53;5.17;;;;;;;-2.26;80.52;99684.77;124618;1105;101904;-79
2021/03/22 02:01:19;;;;;;;12.70;4.90;;;;;;;-2.26;81.02;99683.06;124571;1106;104226;-78
2021/03/22 02:03:48;;;;;;;10.83;5.40;;;;;;;-2.27;80.90;99678.80;124571;1108;104246;-78
2021/03/22 02:06:15;;;;;;;12.30;5.50;;;;;;;-2.27;79.92;99678.80;124508;1105;104105;-78
2021/03/22 02:08:46;;;;;;;7.60;4.43;;;;;;;-2.26;80.59;99682.20;124571;1105;104588;-78
2021/03/22 02:11:25;;;;;;;12.70;5.40;;;;;;;-2.27;79.92;99678.80;124563;1106;104146;-79
2021/03/22 02:13:55;;;;;;;8.60;4.50;;;;;;;-2.27;79.85;99680.50;124789;1105;104219;-78
2021/03/22 02:16:28;;;;;;;12.10;4.73;;;;;;;-2.30;80.33;99676.22;124540;1106;104134;-78
2021/03/22 02:19:04;;;;;;;12.77;5.13;;;;;;;-2.31;80.21;99678.76;124546;1109;104159;-78
2021/03/22 02:21:55;;;;;;;12.63;4.60;;;;;;;-2.32;80.55;99677.05;124798;1105;104187;-78
2021/03/22 02:24:53;;;;;;;10.13;5.27;;;;;;;-2.34;80.37;99684.66;124601;1106;102441;-78
2021/03/22 02:28:11;;;;;;;12.00;5.00;;;;;;;-2.34;80.28;99686.36;124587;1105;104208;-78
2021/03/22 02:31:00;;;;;;;10.88;4.87;;;;;;;-2.33;80.19;99688.11;124175;1109;104226;-79
2021/03/22 02:33:27;;;;;;;13.80;4.97;;;;;;;-2.36;79.91;99685.48;124231;1109;104175;-78
2021/03/22 02:36:20;;;;;;;13.15;5.37;;;;;;;-2.37;80.23;99689.74;124155;1109;104143;-78
2021/03/22 02:39:00;;;;;;;13.80;5.20;;;;;;;-2.38;80.24;99700.80;124331;1109;104302;-79
2021/03/22 02:42:04;;;;;;;12.17;5.23;;;;;;;-2.37;79.87;99699.10;124230;1109;104440;-78
2021/03/22 02:44:34;;;;;;;11.20;5.17;;;;;;;-2.37;80.26;99704.21;123870;1112;104245;-78
2021/03/22 02:47:23;;;;;;;12.40;5.03;;;;;;;-2.39;80.60;99705.89;123928;1112;104178;-78
2021/03/22 02:49:55;;;;;;;14.50;5.57;;;;;;;-2.40;80.64;99706.73;124129;1112;103954;-78
2021/03/22 02:52:40;;;;;;;12.37;5.17;;;;;;;-2.40;80.15;99709.29;124129;1112;104130;-79
2021/03/22 02:55:10;;;;;;;11.33;4.80;;;;;;;-2.41;79.95;99717.79;124145;1112;104386;-77
2021/03/22 02:57:43;;;;;;;13.17;5.47;;;;;;;-2.40;80.80;99714.39;124087;1112;104117;-78
2021/03/22 03:00:17;;;;;;;13.55;5.00;;;;;;;-2.41;80.32;99720.34;123918;1112;103986;-78
2021/03/22 03:02:55;;;;;;;13.05;5.90;;;;;;;-2.43;80.93;99720.33;124219;1109;104126;-78
2021/03/22 03:05:26;;;;;;;11.40;5.53;;;;;;;-2.42;80.17;99716.08;124309;1112;103006;-79
2021/03/22 03:08:03;;;;;;;8.97;4.60;;;;;;;-2.44;80.32;99723.72;124364;1109;104309;-78
2021/03/22 03:10:30;;;;;;;10.87;5.53;;;;;;;-2.45;80.53;99730.53;124181;1109;104150;-77
2021/03/22 03:12:57;;;;;;;14.33;6.13;;;;;;;-2.45;80.67;99727.12;124241;1109;104300;-78
2021/03/22 03:15:25;;;;;;;11.70;5.43;;;;;;;-2.46;80.47;99735.63;124237;1109;104220;-78
2021/03/22 03:17:52;;;;;;;11.37;5.17;;;;;;;-2.47;81.13;99729.66;124273;1111;104092;-78
2021/03/22 03:20:23;;;;;;;15.03;5.53;;;;;;;-2.47;80.32;99734.77;124464;1105;104674;-78
2021/03/22 03:22:51;;;;;;;17.53;6.07;;;;;;;-2.47;80.66;99734.77;124470;1105;104194;-78
2021/03/22 03:25:19;;;;;;;13.50;6.00;;;;;;;-2.48;80.60;99737.30;124671;1106;104118;-78
2021/03/22 03:27:47;;;;;;;14.33;5.37;;;;;;;-2.49;80.48;99743.25;124574;1109;104172;-78
2021/03/22 03:30:20;;;;;;;13.77;5.67;;;;;;;-2.48;80.08;99744.96;124812;1105;104175;-79
2021/03/22 03:32:47;;;;;;;12.30;4.90;;;;;;;-2.48;80.66;99750.07;124714;1105;104211;-78
2021/03/22 03:35:17;;;;;;;13.43;5.30;;;;;;;-2.49;80.39;99756.87;124769;1105;104137;-78
2021/03/22 03:37:44;;;;;;;18.23;6.77;;;;;;;-2.48;81.13;99753.48;124692;1106;104204;-78
2021/03/22 03:40:21;;;;;;;18.13;6.97;;;;;;;-2.49;80.21;99751.77;124562;1106;104290;-79
2021/03/22 03:42:48;;;;;;;13.50;6.00;;;;;;;-2.48;80.52;99765.39;124557;1105;104156;-79
2021/03/22 03:45:16;;;;;;;11.67;5.17;;;;;;;-2.48;80.08;99757.73;124795;1105;103998;-78
2021/03/22 03:47:45;;;;;;;15.80;6.20;;;;;;;-2.47;80.37;99762.85;124501;1105;104290;-78
2021/03/22 03:50:37;;;;;;;10.87;5.17;;;;;;;-2.48;80.58;99763.70;124596;1105;104105;-78
2021/03/22 03:53:04;;;;;;;14.00;5.50;;;;;;;-2.49;80.54;99764.53;124588;1106;104075;-77
2021/03/22 03:55:32;;;;;;;12.93;5.00;;;;;;;-2.49;80.25;99756.02;124529;1105;104214;-77
2021/03/22 03:58:00;;;;;;;12.77;5.33;;;;;;;-2.50;80.09;99765.37;124840;1105;104213;-78
2021/03/22 04:00:34;;;;;;;14.20;5.23;;;;;;;-2.49;80.85;99774.75;124568;1105;104184;-78
2021/03/22 04:03:23;;;;;;;11.83;5.30;;;;;;;-2.50;80.01;99767.92;124576;1105;104162;-78
2021/03/22 04:05:56;;;;;;;12.13;6.03;;;;;;;-2.51;80.63;99771.32;124561;1105;104283;-78
2021/03/22 04:08:26;;;;;;;17.97;8.63;;;;;;;-2.50;80.85;99779.84;124512;1109;102895;-78
2021/03/22 04:10:54;;;;;;;18.07;7.17;;;;;;;-2.51;79.94;99773.88;124527;1105;104129;-78
2021/03/22 04:13:22;;;;;;;15.20;5.67;;;;;;;-2.52;80.34;99782.34;124582;1105;104421;-79
2021/03/22 04:15:49;;;;;;;13.13;5.53;;;;;;;-2.52;80.35;99782.34;124591;1109;103939;-78
2021/03/22 04:18:34;;;;;;;15.37;5.80;;;;;;;-2.53;80.68;99778.08;124517;1106;104290;-78
2021/03/22 04:21:05;;;;;;;10.47;5.47;;;;;;;-2.52;80.45;99782.34;124662;1105;104271;-78
2021/03/22 04:23:33;;;;;;;14.77;6.10;;;;;;;-2.52;80.63;99776.38;124533;1106;104309;-78
2021/03/22 04:26:02;;;;;;;15.40;6.30;;;;;;;-2.51;80.73;99780.67;124528;1109;104136;-78
2021/03/22 04:28:29;;;;;;;15.40;6.40;;;;;;;-2.51;80.58;99778.98;124516;1109;104669;-79
2021/03/22 04:30:57;;;;;;;15.60;6.03;;;;;;;-2.51;79.87;99784.09;124828;1105;104185;-78
2021/03/22 04:33:24;;;;;;;15.87;6.77;;;;;;;-2.49;80.11;99777.30;124502;1105;104220;-78
2021/03/22 04:35:51;;;;;;;20.10;7.80;;;;;;;-2.47;80.55;99790.09;124493;1109;104175;-78
2021/03/22 04:38:19;;;;;;;17.77;7.72;;;;;;;-2.47;80.44;99778.17;124499;1105;104278;-78
2021/03/22 04:40:47;;;;;;;16.37;7.73;;;;;;;-2.43;80.43;99779.06;124531;1105;104194;-77
2021/03/22 04:43:15;;;;;;;17.97;8.47;;;;;;;-2.41;80.16;99779.94;124632;1106;104197;-79
2021/03/22 04:45:43;;;;;;;15.23;8.07;;;;;;;-2.35;80.93;99791.91;124556;1106;104146;-79
2021/03/22 04:48:12;;;;;;;15.65;7.90;;;;;;;-2.31;80.25;99786.03;124552;1105;102772;-78
2021/03/22 04:50:39;;;;;;;20.53;7.67;;;;;;;-2.23;80.60;99786.97;124601;1105;104214;-79
2021/03/22 04:53:07;;;;;;;15.85;8.25;;;;;;;-2.16;80.55;99788.73;124545;1106;103010;-79
2021/03/22 04:55:34;;;;;;;14.47;7.07;;;;;;;-2.08;80.62;99789.70;124790;1105;104133;-78
2021/03/22 04:58:01;;;;;;;17.13;8.50;;;;;;;-1.99;80.81;99782.13;124726;1105;104217;-79
2021/03/22 05:00:41;;;;;;;18.37;8.20;;;;;;;-1.89;81.05;99781.39;124601;1105;104283;-79
2021/03/22 05:03:11;;;;;;;17.63;8.33;;;;;;;-1.82;79.79;99783.16;124533;1106;103999;-79
2021/03/22 05:05:39;;;;;;;16.60;8.13;;;;;;;-1.74;80.21;99777.28;124692;1105;104053;-79
2021/03/22 05:08:09;;;;;;;17.23;7.90;;;;;;;-1.64;79.60;99786.73;124515;1105;104204;-77
2021/03/22 05:10:41;;;;;;;14.23;7.97;;;;;;;-1.54;79.99;99783.44;124582;1106;104197;-78
2021/03/22 05:13:10;;;;;;;17.50;7.67;;;;;;;-1.47;80.37;99790.31;124496;1105;104272;-78
2021/03/22 05:15:38;;;;;;;16.23;7.40;;;;;;;-1.44;79.82;99790.33;124761;1105;104274;-78
2021/03/22 05:18:06;;;;;;;15.30;6.93;;;;;;;-1.39;79.80;99782.72;124610;1106;104188;-79
2021/03/22 05:20:47;;;;;;;15.37;6.90;;;;;;;-1.39;79.56;99788.69;124558;1106;104057;-79
2021/03/22 05:23:20;;;;;;;16.40;8.03;;;;;;;-1.38;79.53;99785.29;124538;1106;103154;-79
2021/03/22 05:25:51;;;;;;;16.77;8.07;;;;;;;-1.36;79.49;99787.86;124505;1105;103168;-78
2021/03/22 05:28:20;;;;;;;14.47;7.97;;;;;;;-1.35;79.29;99790.42;124710;1106;104243;-78
2021/03/22 05:30:49;;;;;;;17.23;7.70;;;;;;;-1.31;79.42;99788.75;124552;1106;103951;-78
2021/03/22 05:33:18;;;;;;;14.90;7.70;;;;;;;-1.28;79.46;99792.18;124615;1105;104172;-77
2021/03/22 05:35:49;;;;;;;19.07;8.30;;;;;;;-1.23;78.81;99795.66;124565;1106;103621;-77
2021/03/22 05:38:16;;;;;;;18.47;8.33;;;;;;;-1.18;78.49;99793.13;124605;1105;104213;-77
2021/03/22 05:40:56;;;;;;;17.07;8.07;;;;;;;-1.17;79.02;99794.84;124477;1109;104011;-77
2021/03/22 05:43:42;;;;;;;17.93;8.37;;;;;;;-1.13;78.50;99796.56;124769;1105;104229;-77
2021/03/22 05:46:39;;;;;;;16.73;8.77;;;;;;;-1.06;79.03;99802.61;124757;1106;104210;-77
2021/03/22 05:49:42;;;;;;;20.87;9.33;;;;;;;-0.92;79.08;99808.66;124624;1105;104253;-77
2021/03/22 05:52:47;;;;;;;19.27;9.43;;;;;;;-0.81;78.27;99809.61;124803;1105;103076;-78
2021/03/22 05:55:52;;;;;;;20.03;9.20;;;;;;;-0.72;78.13;99817.36;124734;1105;104249;-78
2021/03/22 05:58:38;;;;;;;17.23;8.27;;;;;;;-0.64;78.54;99823.38;124691;1105;104727;-79
2021/03/22 06:01:26;;;;;;;18.00;8.60;;;;;;;-0.53;78.11;99826.02;124747;1105;104251;-79
2021/03/22 06:04:21;;;;;;;17.77;8.00;;;;;;;-0.44;78.04;99830.31;124579;1106;104146;-79
2021/03/22 06:06:50;;;;;;;20.67;8.37;;;;;;;-0.36;77.89;99844.02;124608;1105;104382;-79
2021/03/22 06:09:36;;;;;;;17.60;7.90;;;;;;;-0.29;78.18;99850.90;124750;1105;104137;-78
2021/03/22 06:12:15;;;;;;;18.83;8.97;;;;;;;-0.18;77.69;99843.25;124751;1105;104111;-79
2021/03/22 06:15:07;;;;;;;24.60;10.47;;;;;;;-0.07;78.01;99841.59;124779;1105;104309;-79
2021/03/22 06:17:55;;;;;;;18.37;8.50;;;;;;;0.07;77.66;99846.80;124771;1105;104137;-78
2021/03/22 06:20:28;;;;;;;18.90;8.13;;;;;;;0.20;77.19;99845.99;124505;1106;104270;-78
2021/03/22 06:23:02;;;;;;;21.83;8.40;;;;;;;0.35;77.47;99838.31;124623;1105;103941;-78
2021/03/22 06:25:34;;;;;;;15.03;7.73;;;;;;;0.48;77.42;99842.63;124604;1105;104149;-78
2021/03/22 06:28:13;;;;;;;19.97;8.90;;;;;;;0.60;76.89;99852.93;124560;1105;104108;-79
2021/03/22 06:30:56;;;;;;;21.20;9.17;;;;;;;0.74;76.48;99852.10;124804;1105;102879;-78
2021/03/22 06:33:32;;;;;;;18.37;8.10;;;;;;;0.86;76.31;99858.08;124525;1109;104303;-78
2021/03/22 06:35:59;;;;;;;22.43;8.87;;;;;;;1.00;76.37;99852.10;124528;1105;104361;-78
2021/03/22 06:38:26;;;;;;;16.30;8.20;;;;;;;1.14;76.04;99856.39;124692;1105;104198;-78
2021/03/22 06:40:53;;;;;;;17.37;9.07;;;;;;;1.33;75.93;99862.38;124499;1105;104245;-78
2021/03/22 06:43:25;;;;;;;14.80;8.13;;;;;;;1.58;75.56;99864.89;124577;1105;104169;-78
2021/03/22 06:46:04;;;;;;;18.47;8.70;;;;;;;1.83;75.01;99868.28;124522;1106;104114;-79
2021/03/22 06:48:34;;;;;;;19.27;8.63;;;;;;;2.10;74.87;99865.59;124580;1105;104376;-79
2021/03/22 06:51:05;;;;;;;16.87;7.70;;;;;;;2.35;74.43;99874.94;124550;1105;104162;-79
2021/03/22 06:53:37;;;;;;;20.70;8.43;;;;;;;2.55;73.79;99872.26;124761;1105;104156;-78
2021/03/22 06:56:25;;;;;;;17.80;8.15;;;;;;;2.77;73.77;99870.41;124811;1105;104146;-79
2021/03/22 06:59:14;;;;;;;17.07;8.63;;;;;;;3.01;72.96;99875.37;124693;1105;104315;-78
2021/03/22 07:01:44;;;;;;;17.83;8.00;;;;;;;3.20;72.53;99881.23;124547;1106;104275;-79
2021/03/22 07:04:15;;;;;;;18.83;8.17;;;;;;;3.38;72.09;99887.95;124598;1109;104229;-78
2021/03/22 07:06:43;;;;;;;16.63;7.40;;;;;;;3.45;71.89;99886.20;124800;1105;104114;-79
2021/03/22 07:09:31;;;;;;;16.93;7.80;;;;;;;3.49;71.77;99880.99;124546;1106;104264;-79
2021/03/22 07:11:59;;;;;;;17.30;7.70;;;;;;;3.52;70.74;99878.37;124488;1109;104325;-78
2021/03/22 07:14:29;;;;;;;16.40;8.23;;;;;;;3.58;70.97;99891.20;124639;1105;104307;-79
2021/03/22 07:17:14;;;;;;;16.23;8.17;;;;;;;3.66;70.68;99885.14;124585;1109;104165;-78
2021/03/22 07:19:42;;;;;;;18.03;8.57;;;;;;;3.83;69.73;99891.83;124519;1106;103814;-78
2021/03/22 07:22:21;;;;;;;19.77;8.90;;;;;;;4.10;70.34;99884.64;124596;1106;104239;-78
2021/03/22 07:25:28;;;;;;;17.73;8.77;;;;;;;4.52;70.09;99883.27;124596;1105;104265;-79
2021/03/22 07:28:08;;;;;;;17.10;8.70;;;;;;;4.95;69.41;99887.82;124502;1105;103986;-79
2021/03/22 07:30:47;;;;;;;18.90;8.53;;;;;;;5.41;68.84;99890.55;124566;1109;104150;-81
2021/03/22 07:33:42;;;;;;;14.25;7.70;;;;;;;5.89;67.12;99893.97;124733;1109;104101;-80
2021/03/22 07:36:32;;;;;;;14.97;8.00;;;;;;;6.25;66.84;99894.17;124548;1109;104210;-79
2021/03/22 07:39:05;;;;;;;18.20;9.35;;;;;;;6.84;66.44;99890.33;124574;1105;104217;-79
2021/03/22 07:41:35;;;;;;;18.10;9.07;;;;;;;7.30;65.06;99897.02;124547;1105;104274;-80
2021/03/22 07:44:18;;;;;;;17.00;9.13;;;;;;;8.15;64.21;99888.74;124884;1105;103980;-80
2021/03/22 07:47:06;;;;;;;20.83;11.00;;;;;;;8.86;62.83;99895.36;124673;1106;104107;-79
2021/03/22 07:49:46;;;;;;;17.15;8.90;;;;;;;8.96;61.44;99895.01;124776;1105;104131;-79
2021/03/22 07:52:16;;;;;;;15.17;9.67;;;;;;;8.97;61.41;99898.46;124554;1109;104201;-78
2021/03/22 07:55:25;;;;;;;17.33;10.20;;;;;;;8.95;61.10;99905.47;124567;1105;104141;-79
2021/03/22 07:58:07;;;;;;;19.70;9.73;;;;;;;8.73;60.46;99905.27;124584;1105;104252;-79
2021/03/22 08:00:58;;;;;;;15.63;8.17;;;;;;;8.30;59.55;99916.05;124530;1109;104306;-79
2021/03/22 08:03:31;;;;;;;13.37;7.60;;;;;;;7.63;58.77;99918.69;124523;1109;104378;-78
2021/03/22 08:06:07;;;;;;;13.80;7.27;;;;;;;6.97;58.66;99927.17;124552;1105;104623;-78
2021/03/22 08:08:42;;;;;;;15.30;7.53;;;;;;;6.29;59.92;99927.77;124543;1106;104354;-79
2021/03/22 08:11:38;;;;;;;13.83;6.77;;;;;;;5.76;60.51;99927.01;124533;1105;104329;-78
2021/03/22 08:14:18;;;;;;;10.33;5.97;;;;;;;5.35;61.55;99930.27;124453;1106;104181;-78
2021/03/22 08:17:22;;;;;;;11.33;6.00;;;;;;;4.93;62.43;99941.27;124563;1109;104191;-77
2021/03/22 08:19:56;;;;;;;12.63;5.93;;;;;;;4.47;63.26;99931.52;124757;1105;104259;-78
2021/03/22 08:22:52;;;;;;;14.87;6.67;;;;;;;4.25;64.07;99933.52;124455;1106;104275;-78
2021/03/22 08:25:32;;;;;;;11.33;6.43;;;;;;;4.68;65.40;99933.86;124607;1105;104296;-76
2021/03/22 08:28:10;;;;;;;12.90;7.10;;;;;;;6.04;64.70;99931.70;124546;1105;104133;-77
2021/03/22 08:30:48;;;;;;;11.33;6.33;;;;;;;7.40;63.29;99921.86;124609;1105;104171;-78
2021/03/22 08:33:35;;;;;;;15.60;6.90;;;;;;;8.81;62.41;99912.86;124731;1105;104798;-77
2021/03/22 08:36:33;;;;;;;11.07;5.97;;;;;;;10.88;59.20;99916.98;124433;1106;104210;-78
2021/03/22 08:39:29;;;;;;;10.20;5.80;;;;;;;12.89;57.99;99901.42;124569;1109;104904;-77
2021/03/22 08:42:47;;;;;;;9.47;5.63;;;;;;;14.70;56.19;99891.38;124656;1106;104174;-78
2021/03/22 08:45:20;;;;;;;9.53;5.10;;;;;;;16.19;52.59;99898.53;124472;1106;104239;-78
2021/03/22 08:48:02;;;;;;;9.17;5.80;;;;;;;16.30;50.79;99901.33;124625;1105;104239;-78
2021/03/22 08:50:34;;;;;;;8.67;5.63;;;;;;;15.86;48.97;99896.13;124511;1105;104309;-78
2021/03/22 08:53:11;;;;;;;9.53;5.60;;;;;;;14.93;47.12;99900.63;124592;1106;104217;-78
2021/03/22 08:55:38;;;;;;;11.33;6.00;;;;;;;13.94;46.59;99901.50;124635;1105;104191;-77
2021/03/22 08:58:17;;;;;;;10.88;6.05;;;;;;;13.07;47.23;99910.18;124567;1105;104111;-79
2021/03/22 09:00:47;;;;;;;9.67;6.00;;;;;;;12.28;47.83;99914.70;124517;1105;104245;-79
2021/03/22 09:03:18;;;;;;;11.47;6.70;;;;;;;11.55;48.50;99903.00;124474;1109;104236;-79
2021/03/22 09:06:17;;;;;;;10.23;6.00;;;;;;;10.82;48.16;99898.12;124559;1105;104567;-79
2021/03/22 09:08:52;;;;;;;10.20;6.17;;;;;;;9.94;47.20;99916.08;124471;1105;103967;-79
2021/03/22 09:11:30;;;;;;;8.40;5.37;;;;;;;9.29;49.12;99916.52;124737;1105;104159;-79
2021/03/22 09:14:18;;;;;;;11.03;5.70;;;;;;;8.90;49.94;99909.97;124490;1105;104178;-78
2021/03/22 09:16:49;;;;;;;10.50;6.00;;;;;;;8.73;51.18;99911.33;124519;1105;104159;-79
2021/03/22 09:19:17;;;;;;;10.00;5.50;;;;;;;9.08;51.31;99905.05;124518;1105;104127;-79
2021/03/22 09:21:53;;;;;;;9.57;5.10;;;;;;;9.65;51.08;99909.25;124757;1105;104137;-78
2021/03/22 09:24:45;;;;;;;8.27;5.07;;;;;;;10.67;51.30;99896.09;124496;1106;104175;-78
2021/03/22 09:27:15;;;;;;;13.23;5.60;;;;;;;12.00;50.41;99905.44;124706;1105;104238;-79
2021/03/22 09:29:56;;;;;;;6.83;4.27;;;;;;;13.09;49.07;99896.09;124468;1106;104316;-77
2021/03/22 09:32:23;;;;;;;9.30;5.80;;;;;;;13.91;47.48;99899.89;124664;1105;104125;-78
2021/03/22 09:35:17;;;;;;;9.23;4.27;;;;;;;14.75;46.95;99905.12;124730;1105;104153;-78
2021/03/22 09:37:56;;;;;;;5.60;3.47;;;;;;;15.83;45.66;99901.58;124516;1109;104297;-79
2021/03/22 09:40:24;;;;;;;7.00;3.80;;;;;;;16.54;44.62;99885.83;124496;1108;104190;-78
2021/03/22 09:43:29;;;;;;;7.03;4.10;;;;;;;17.05;43.48;99885.27;124423;1109;104444;-78
2021/03/22 09:46:04;;;;;;;8.13;3.97;;;;;;;17.39;41.62;99886.55;124087;1112;104315;-78
2021/03/22 09:48:35;;;;;;;6.27;4.10;;;;;;;17.78;42.16;99897.13;124134;1112;104124;-79
2021/03/22 09:51:05;;;;;;;7.37;3.77;;;;;;;17.72;41.11;99889.61;124146;1112;104146;-78
2021/03/22 09:53:54;;;;;;;6.00;3.60;;;;;;;17.58;40.71;99886.17;124134;1112;104230;-78
2021/03/22 09:56:25;;;;;;;5.60;3.53;;;;;;;16.87;39.89;99884.66;124092;1112;104165;-78
2021/03/22 09:58:53;;;;;;;4.90;3.47;;;;;;;16.09;40.28;99888.64;124149;1112;104271;-78
2021/03/22 10:01:29;;;;;;;5.07;3.50;;;;;;;16.09;41.04;99892.11;124147;1112;104360;-79
2021/03/22 10:04:13;;;;;;;6.63;3.90;;;;;;;16.60;40.68;99879.33;124266;1112;104188;-78
2021/03/22 10:06:56;;;;;;;5.47;3.17;;;;;;;17.18;40.78;99886.16;124192;1112;104331;-78
2021/03/22 10:09:53;;;;;;;4.63;2.83;;;;;;;17.43;39.38;99898.60;124193;1112;104281;-79
2021/03/22 10:12:29;;;;;;;6.77;3.07;;;;;;;17.57;38.39;99892.39;124177;1112;106074;-78
2021/03/22 10:15:07;;;;;;;5.80;3.13;;;;;;;16.99;38.40;99896.20;124213;1109;104233;-77
2021/03/22 10:17:37;;;;;;;5.97;3.20;;;;;;;17.51;39.77;99889.22;124237;1109;104274;-78
2021/03/22 10:20:26;;;;;;;6.13;3.47;;;;;;;17.78;38.71;99899.77;124290;1112;104337;-78
2021/03/22 10:23:32;;;;;;;5.33;3.50;;;;;;;17.87;38.53;99902.72;124483;1106;104104;-78
2021/03/22 10:26:11;;;;;;;6.70;3.47;;;;;;;17.95;37.82;99887.20;124274;1109;104152;-78
2021/03/22 10:28:41;;;;;;;6.23;3.40;;;;;;;18.24;37.23;99888.69;124211;1112;104194;-80
2021/03/22 10:31:24;;;;;;;4.85;3.00;;;;;;;18.23;36.42;99880.88;124209;1109;104210;-79
2021/03/22 10:33:57;;;;;;;5.10;2.77;;;;;;;17.76;36.46;99877.90;124209;1112;104169;-80
2021/03/22 10:36:42;;;;;;;8.47;3.80;;;;;;;17.63;36.01;99881.45;124205;1109;104460;-79
2021/03/22 10:39:30;;;;;;;6.40;3.90;;;;;;;17.73;36.58;99871.99;124235;1108;104332;-78
2021/03/22 10:41:57;;;;;;;5.93;3.43;;;;;;;17.85;35.48;99876.45;124269;1109;104188;-78
2021/03/22 10:44:29;;;;;;;5.43;4.10;;;;;;;17.63;35.67;99878.82;124342;1109;104149;-78
2021/03/22 10:47:13;;;;;;;6.45;3.60;;;;;;;17.06;34.54;99879.92;124318;1112;104204;-77
2021/03/22 10:49:41;;;;;;;5.93;3.10;;;;;;;16.67;35.02;99875.38;124326;1109;104325;-77
2021/03/22 10:52:29;;;;;;;5.50;2.40;;;;;;;16.62;35.22;99874.80;124495;1109;104176;-78
2021/03/22 10:54:57;;;;;;;4.50;2.80;;;;;;;16.59;35.72;99877.64;124247;1109;104599;-78
2021/03/22 10:57:29;;;;;;;7.60;3.50;;;;;;;16.68;36.02;99871.81;124244;1112;104111;-77
2021/03/22 10:59:59;;;;;;;6.67;3.83;;;;;;;16.76;35.87;99868.70;124184;1109;104150;-78
2021/03/22 11:02:52;;;;;;;5.17;3.10;;;;;;;16.60;35.38;99869.64;124236;1109;104197;-78
2021/03/22 11:05:26;;;;;;;7.97;3.70;;;;;;;15.99;33.94;99862.91;124627;1105;104178;-73
2021/03/22 11:08:03;;;;;;;6.40;3.60;;;;;;;15.40;35.27;99872.49;124531;1105;104053;-79
2021/03/22 11:10:35;;;;;;;7.50;3.73;;;;;;;15.17;35.10;99872.98;124476;1105;101873;-78
2021/03/22 11:13:03;;;;;;;6.00;3.57;;;;;;;14.69;35.95;99876.55;124761;1105;104273;-80
2021/03/22 11:15:33;;;;;;;7.50;3.30;;;;;;;14.57;36.06;99869.38;124544;1105;104290;-78
2021/03/22 11:18:05;;;;;;;4.80;3.60;;;;;;;14.14;35.91;99869.84;124550;1108;104283;-79
2021/03/22 11:20:33;;;;;;;6.83;3.33;;;;;;;13.64;36.68;99885.55;124554;1109;104934;-78
2021/03/22 11:23:25;;;;;;;10.80;3.43;;;;;;;13.34;35.88;99881.86;124510;1105;104213;-78
2021/03/22 11:25:55;;;;;;;6.93;3.13;;;;;;;12.90;35.08;99871.72;124511;1105;104210;-78
2021/03/22 11:28:25;;;;;;;5.17;2.80;;;;;;;12.37;35.05;99877.67;124508;1105;104425;-78
2021/03/22 11:30:53;;;;;;;5.17;3.20;;;;;;;11.87;36.59;99872.09;124502;1105;104286;-78
2021/03/22 11:33:40;;;;;;;5.50;2.90;;;;;;;11.32;38.41;99882.22;124679;1105;104098;-78
2021/03/22 11:36:14;;;;;;;5.40;2.63;;;;;;;10.82;37.65;99888.53;124615;1105;104207;-74
2021/03/22 11:38:59;;;;;;;3.80;2.30;;;;;;;10.38;38.97;99887.59;124549;1105;104166;-77
2021/03/22 11:41:38;;;;;;;5.23;2.47;;;;;;;10.07;38.76;99890.45;124492;1105;104159;-77
2021/03/22 11:44:21;;;;;;;4.07;2.50;;;;;;;9.85;39.63;99890.33;124724;1105;104121;-78
2021/03/22 11:46:54;;;;;;;4.57;2.30;;;;;;;9.54;38.85;99885.34;124739;1105;104198;-75
2021/03/22 11:49:38;;;;;;;5.80;2.40;;;;;;;9.29;39.08;99890.48;124755;1105;102940;-78
2021/03/22 11:52:21;;;;;;;4.77;2.23;;;;;;;9.09;39.91;99888.53;124505;1105;104236;-77